Time;durP1;ratioP1;P1;durP2;ratioP2;P2;SDS_P1;SDS_P2;PMS_P1;PMS_P2;Temp;Humidity;BMP_temperature;BMP_pressure;BME280_temperature;BME280_humidity;BME280_pressure;Samples;Min_cycle;Max_cycle;Signal;HPM_P1;HPM_P2
2022/05/30 00:00:06;;;;;;;7.82;4.57;;;;;;;22.92;50.87;97919.03;5011953;28;20092;-75
2022/05/30 00:02:32;;;;;;;;;;;;;;;22.91;51.27;97914.75;4996304;28;20028;-75
2022/05/30 00:04:57;;;;;;;9.40;4.63;;;;;;;22.88;51.30;97917.00;5011152;28;20000;-75
2022/05/30 00:07:23;;;;;;;7.55;4.40;;;;;;;22.84;52.38;97921.97;5012764;28;20087;-75
2022/05/30 00:09:48;;;;;;;8.63;4.68;;;;;;;22.83;51.89;97915.00;5012791;28;20033;-76
2022/05/30 00:12:14;;;;;;;6.18;4.07;;;;;;;22.83;52.27;97892.91;5011128;28;20033;-75
2022/05/30 00:14:39;;;;;;;10.43;4.85;;;;;;;22.81;52.31;97894.97;5012089;28;20493;-75
2022/05/30 00:17:05;;;;;;;11.68;4.70;;;;;;;22.77;52.80;97881.28;5011893;28;20048;-75
2022/05/30 00:19:30;;;;;;;6.63;4.20;;;;;;;22.75;53.18;97867.38;5012560;28;20026;-75
2022/05/30 00:21:56;;;;;;;8.70;4.68;;;;;;;22.72;53.32;97871.31;5012643;28;20408;-75
2022/05/30 00:24:23;;;;;;;9.85;5.10;;;;;;;22.70;53.37;97860.06;5012646;28;20026;-75
2022/05/30 00:26:48;;;;;;;9.32;5.40;;;;;;;22.66;53.57;97871.34;5011369;28;20229;-76
2022/05/30 00:29:14;;;;;;;11.85;5.18;;;;;;;22.66;54.11;97863.34;4995268;28;20026;-75
2022/05/30 00:31:39;;;;;;;10.00;5.03;;;;;;;22.65;54.05;97853.78;5012946;28;20104;-76
2022/05/30 00:34:05;;;;;;;7.72;5.30;;;;;;;22.64;54.10;97846.81;5011200;28;20041;-75
2022/05/30 00:36:30;;;;;;;11.38;5.18;;;;;;;22.59;54.11;97840.28;5012209;28;20080;-75
2022/05/30 00:38:56;;;;;;;9.45;5.38;;;;;;;22.62;54.11;97854.19;5011349;28;20026;-75
2022/05/30 00:41:21;;;;;;;14.10;5.85;;;;;;;22.58;54.25;97857.28;5012191;28;20034;-75
2022/05/30 00:43:47;;;;;;;12.55;5.80;;;;;;;22.56;54.55;97859.31;5011555;28;20032;-75
2022/05/30 00:46:15;;;;;;;9.73;5.25;;;;;;;22.56;54.63;97866.50;5012398;28;20034;-75
2022/05/30 00:48:44;;;;;;;9.43;5.10;;;;;;;22.57;54.62;97884.09;4995032;28;20057;-75
2022/05/30 00:51:12;;;;;;;8.02;5.05;;;;;;;22.51;55.12;97922.19;5011170;28;20037;-75
2022/05/30 00:53:40;;;;;;;11.75;5.45;;;;;;;22.45;54.95;97939.00;4979315;28;20046;-75
2022/05/30 00:56:06;;;;;;;7.95;5.40;;;;;;;22.40;54.50;97945.75;5011402;28;20060;-75
2022/05/30 00:58:33;;;;;;;15.73;5.80;;;;;;;22.40;54.84;97958.25;5012348;28;20026;-75
2022/05/30 01:00:58;;;;;;;9.32;5.00;;;;;;;22.38;54.66;97965.63;5011201;28;20026;-75
2022/05/30 01:08:53;;;;;;;8.45;4.93;;;;;;;22.30;54.07;97989.78;5011017;28;20092;-75
2022/05/30 01:11:18;;;;;;;10.75;5.50;;;;;;;22.25;53.98;97984.25;5011274;28;20065;-75
2022/05/30 01:13:44;;;;;;;8.63;4.88;;;;;;;22.22;53.97;97991.63;5012088;28;20096;-75
2022/05/30 01:16:10;;;;;;;9.07;4.85;;;;;;;22.21;53.60;97982.00;4996622;28;20034;-75
2022/05/30 01:18:51;;;;;;;8.38;4.45;;;;;;;22.20;53.10;97976.91;5014892;28;20401;-75
2022/05/30 01:21:43;;;;;;;7.47;4.55;;;;;;;22.18;52.82;97958.50;4999958;28;20038;-75
2022/05/30 01:24:18;;;;;;;9.88;4.40;;;;;;;22.16;52.79;97957.91;4998100;28;20033;-75
2022/05/30 01:27:06;;;;;;;7.45;3.80;;;;;;;22.11;52.76;97951.59;5014877;28;20096;-76
2022/05/30 01:29:31;;;;;;;;;;;;;;;;;;5013951;28;20037;-75
2022/05/30 01:31:56;;;;;;;8.70;3.80;;;;;;;22.07;52.96;97948.53;5014831;28;20380;-75
2022/05/30 01:34:23;;;;;;;8.65;4.03;;;;;;;22.04;53.06;97943.63;5015382;28;20042;-75
2022/05/30 01:36:48;;;;;;;7.60;3.75;;;;;;;21.99;53.25;97943.47;4998116;28;20072;-75
2022/05/30 01:39:14;;;;;;;12.63;4.10;;;;;;;21.94;53.11;97924.69;5015471;28;20378;-75
2022/05/30 01:41:40;;;;;;;8.68;4.30;;;;;;;21.92;53.27;97916.91;5014899;28;20097;-76
2022/05/30 01:44:05;;;;;;;6.18;3.85;;;;;;;21.93;53.31;97918.53;4997094;28;20112;-75
2022/05/30 01:46:31;;;;;;;7.07;3.72;;;;;;;21.90;53.29;97918.97;5014094;28;20072;-75
2022/05/30 01:48:56;;;;;;;7.53;4.10;;;;;;;21.89;53.73;97916.53;5014364;28;20531;-75
2022/05/30 01:51:22;;;;;;;6.47;3.72;;;;;;;21.86;53.67;97915.09;4998212;28;20053;-75
2022/05/30 01:53:49;;;;;;;7.78;4.07;;;;;;;21.84;53.61;97917.97;5014213;28;20049;-75
2022/05/30 01:56:14;;;;;;;9.68;4.07;;;;;;;21.85;53.52;97916.94;5013603;28;20421;-75
2022/05/30 01:58:40;;;;;;;8.30;4.10;;;;;;;21.84;53.81;97919.81;5015396;28;20053;-75
2022/05/30 02:01:12;;;;;;;12.75;3.70;;;;;;;21.85;53.92;97921.41;5013772;28;20069;-75
2022/05/30 02:03:38;;;;;;;10.23;4.30;;;;;;;21.86;53.74;97923.88;4998702;28;20018;-75
2022/05/30 02:06:03;;;;;;;7.40;3.97;;;;;;;21.83;53.66;97913.66;5014884;28;20034;-75
2022/05/30 02:08:29;;;;;;;7.72;3.85;;;;;;;21.83;54.10;97921.63;5013875;28;20030;-75
2022/05/30 02:10:54;;;;;;;8.88;4.05;;;;;;;21.87;53.87;97932.69;4996575;28;20507;-76
2022/05/30 02:13:20;;;;;;;9.48;3.92;;;;;;;21.88;54.10;97936.94;4997512;28;20034;-75
2022/05/30 02:18:29;;;;;;;9.55;4.55;;;;;;;21.88;54.16;97921.00;5011095;28;20045;-75
2022/05/30 02:20:55;;;;;;;6.60;4.30;;;;;;;21.91;54.16;97923.25;5014437;28;20026;-75
2022/05/30 02:23:20;;;;;;;9.80;4.22;;;;;;;21.89;54.06;97914.69;5014440;28;20072;-75
2022/05/30 02:25:46;;;;;;;6.38;3.85;;;;;;;21.92;53.93;97910.75;5014751;28;20485;-76
2022/05/30 02:28:11;;;;;;;8.73;3.90;;;;;;;21.94;53.96;97916.72;5013149;28;20026;-75
2022/05/30 02:30:37;;;;;;;7.93;3.95;;;;;;;21.94;54.02;97906.06;5014532;28;20034;-76
2022/05/30 02:38:31;;;;;;;8.23;4.07;;;;;;;21.96;54.10;97909.34;5030338;22;20566;-70
2022/05/30 02:40:56;;;;;;;7.65;4.15;;;;;;;21.96;53.95;97904.03;4989617;28;20117;-69
2022/05/30 02:43:22;;;;;;;7.65;4.05;;;;;;;21.96;54.19;97904.03;4994009;28;20038;-68
2022/05/30 02:45:47;;;;;;;8.38;4.65;;;;;;;21.95;54.04;97897.06;4993913;28;20053;-68
2022/05/30 02:48:13;;;;;;;10.10;4.28;;;;;;;21.94;53.90;97896.25;4977179;28;20041;-68
2022/05/30 02:50:38;;;;;;;7.93;4.18;;;;;;;21.99;53.98;97907.06;4974602;28;20042;-68
2022/05/30 02:53:04;;;;;;;8.65;3.92;;;;;;;22.00;54.08;97916.66;4965512;28;20493;-68
2022/05/30 02:55:29;;;;;;;10.80;4.10;;;;;;;22.02;53.72;97913.81;4993949;28;20061;-69
2022/05/30 02:57:55;;;;;;;7.50;4.13;;;;;;;22.02;54.01;97917.28;4975736;28;20037;-68
2022/05/30 03:00:20;;;;;;;8.52;4.20;;;;;;;22.03;53.93;97918.09;4974316;28;20545;-69
2022/05/30 03:02:46;;;;;;;11.43;4.35;;;;;;;22.01;53.90;97906.84;4972227;28;20045;-69
2022/05/30 03:05:11;;;;;;;11.57;5.30;;;;;;;22.07;53.73;97915.84;4956035;28;20089;-69
2022/05/30 03:07:37;;;;;;;9.68;4.90;;;;;;;22.10;53.76;97918.88;4955900;28;20102;-69
2022/05/30 03:10:03;;;;;;;7.00;4.10;;;;;;;22.12;53.57;97916.81;4973436;28;20034;-69
2022/05/30 03:12:29;;;;;;;8.30;4.38;;;;;;;22.15;53.53;97926.22;4973190;28;20138;-71
2022/05/30 03:14:55;;;;;;;7.65;4.15;;;;;;;22.17;53.11;97927.66;4974684;28;20383;-71
2022/05/30 03:17:20;;;;;;;9.25;4.30;;;;;;;22.18;53.39;97923.13;4973289;28;20093;-70
2022/05/30 03:19:46;;;;;;;10.43;4.50;;;;;;;22.57;57.30;97932.78;4986159;28;20085;-70
2022/05/30 03:22:11;;;;;;;8.57;3.75;;;;;;;23.09;55.25;97931.84;4972876;28;20272;-74
2022/05/30 03:24:37;;;;;;;5.82;3.47;;;;;;;23.63;52.74;97934.81;4973375;28;20074;-71
2022/05/30 03:27:03;;;;;;;10.70;3.80;;;;;;;24.05;51.15;97944.84;4956802;28;20038;-70
2022/05/30 03:29:28;;;;;;;7.93;3.83;;;;;;;24.29;50.58;97946.59;4956945;28;20035;-68
2022/05/30 03:31:54;;;;;;;12.85;3.38;;;;;;;24.47;49.62;97942.25;4980976;28;20038;-74
2022/05/30 03:34:20;;;;;;;11.68;3.95;;;;;;;24.67;48.56;97955.34;4975851;28;20034;-77
2022/05/30 03:36:46;;;;;;;10.27;3.53;;;;;;;24.87;47.66;97952.38;4992869;28;20053;-76
2022/05/30 03:39:13;;;;;;;7.97;3.72;;;;;;;25.04;47.16;97950.66;4992326;28;20081;-74
2022/05/30 03:41:38;;;;;;;7.30;3.80;;;;;;;25.60;45.87;97958.38;4992879;28;20131;-86
2022/05/30 03:44:04;;;;;;;8.02;3.47;;;;;;;26.36;43.55;97958.38;4993275;28;20493;-72
2022/05/30 03:46:30;;;;;;;8.13;3.40;;;;;;;26.98;42.16;97967.53;4992341;28;20586;-72
2022/05/30 03:48:56;;;;;;;6.93;3.10;;;;;;;27.56;40.88;97977.06;4974902;28;20038;-72
2022/05/30 03:51:21;;;;;;;7.90;3.40;;;;;;;28.02;39.40;97968.03;4976185;28;20519;-72
2022/05/30 03:53:47;;;;;;;11.43;3.53;;;;;;;28.51;38.35;97982.31;4989066;28;20034;-72
2022/05/30 03:56:12;;;;;;;12.77;3.47;;;;;;;29.13;37.03;97979.41;4972631;28;20031;-71
2022/05/30 03:58:38;;;;;;;11.45;3.25;;;;;;;29.72;35.75;97976.63;4973962;28;20211;-71
2022/05/30 04:01:05;;;;;;;10.38;3.33;;;;;;;30.26;34.67;97972.06;4972778;28;20031;-71
2022/05/30 04:03:31;;;;;;;7.30;3.33;;;;;;;30.70;34.06;97981.66;4972862;28;20044;-71
2022/05/30 04:05:56;;;;;;;8.05;3.15;;;;;;;31.14;33.21;97995.44;4972520;28;20035;-71
2022/05/30 04:08:22;;;;;;;12.57;3.35;;;;;;;31.70;31.95;98002.69;4973770;28;20077;-71
2022/05/30 04:10:47;;;;;;;7.05;3.22;;;;;;;32.03;31.58;98008.56;4972472;28;20524;-71
2022/05/30 04:13:13;;;;;;;6.45;3.10;;;;;;;32.32;30.76;97997.13;4972431;28;20043;-71
2022/05/30 04:15:38;;;;;;;7.95;2.78;;;;;;;32.81;30.04;98009.03;4972486;28;20073;-71
2022/05/30 04:18:04;;;;;;;11.13;3.55;;;;;;;33.05;29.55;98011.03;4973738;28;20034;-71
2022/05/30 04:20:30;;;;;;;6.00;3.05;;;;;;;33.48;28.80;98016.69;4972285;28;20026;-71
2022/05/30 04:22:55;;;;;;;8.77;3.20;;;;;;;34.03;27.81;98010.97;4972401;28;20030;-72
2022/05/30 04:25:21;;;;;;;9.05;3.20;;;;;;;34.63;27.28;98012.44;4972391;28;20078;-72
2022/05/30 04:27:46;;;;;;;9.57;3.13;;;;;;;35.11;26.33;98015.78;4973387;28;20030;-72
2022/05/30 04:30:12;;;;;;;9.48;3.10;;;;;;;35.68;25.77;98014.88;4973583;28;20034;-72
2022/05/30 04:32:37;;;;;;;8.27;2.90;;;;;;;36.14;25.11;98011.28;4973500;28;20059;-72
2022/05/30 04:35:07;;;;;;;8.43;3.10;;;;;;;36.57;24.49;98007.44;4973544;28;20038;-72
2022/05/30 04:37:32;;;;;;;7.80;2.53;;;;;;;37.04;23.78;98018.09;4940195;28;20033;-72
2022/05/30 04:39:58;;;;;;;7.55;2.50;;;;;;;37.36;23.13;98024.41;4956144;28;20327;-71
2022/05/30 04:42:23;;;;;;;7.43;2.70;;;;;;;37.46;23.43;98021.41;4973643;28;20030;-72
2022/05/30 04:44:49;;;;;;;6.10;2.60;;;;;;;37.37;23.64;98023.28;4973447;28;20030;-72
2022/05/30 04:47:14;;;;;;;6.85;2.58;;;;;;;37.63;23.33;98013.31;4973704;28;20042;-72
2022/05/30 04:49:40;;;;;;;7.40;2.63;;;;;;;38.23;22.03;98024.03;4973443;28;20038;-73
2022/05/30 04:52:06;;;;;;;8.20;2.65;;;;;;;38.59;22.05;98022.94;4976398;28;20039;-72
2022/05/30 04:54:31;;;;;;;8.23;2.60;;;;;;;38.94;21.58;98031.19;4976041;28;20053;-72
2022/05/30 04:56:57;;;;;;;6.78;2.95;;;;;;;39.47;21.13;98031.94;4977090;28;20045;-72
2022/05/30 04:59:22;;;;;;;5.60;2.42;;;;;;;39.93;20.64;98033.09;4977301;28;20027;-72
2022/05/30 05:01:48;;;;;;;7.90;2.42;;;;;;;40.40;20.04;98043.97;4975885;28;20038;-76
2022/05/30 05:04:14;;;;;;;8.07;2.70;;;;;;;40.43;19.67;98029.66;4977214;28;20042;-73
2022/05/30 05:06:40;;;;;;;8.60;2.92;;;;;;;40.13;19.95;98046.03;4958352;28;20462;-75
2022/05/30 05:09:18;;;;;;;8.07;2.78;;;;;;;40.87;19.59;98040.31;4975181;28;20405;-73
2022/05/30 05:11:44;;;;;;;5.53;2.47;;;;;;;41.19;19.07;98041.47;4976546;28;20121;-73
2022/05/30 05:14:10;;;;;;;5.10;2.10;;;;;;;40.91;19.33;98038.50;4959697;28;20030;-73
2022/05/30 05:16:35;;;;;;;8.25;2.50;;;;;;;41.28;18.78;98038.69;4974825;28;20122;-73
2022/05/30 05:19:01;;;;;;;8.25;2.67;;;;;;;41.72;18.36;98049.16;4975458;28;20030;-77
2022/05/30 05:21:29;;;;;;;7.35;2.10;;;;;;;42.33;17.94;98050.38;4975313;28;20113;-79
2022/05/30 05:23:54;;;;;;;9.13;2.40;;;;;;;42.88;17.11;98051.63;4960211;28;20046;-73
2022/05/30 05:26:20;;;;;;;10.68;2.50;;;;;;;43.26;16.87;98058.59;4959998;28;20027;-74
2022/05/30 05:28:47;;;;;;;9.20;2.17;;;;;;;43.66;16.44;98048.66;4959128;28;20536;-75
2022/05/30 05:31:34;;;;;;;12.02;2.47;;;;;;;44.00;15.86;98049.94;4976547;28;20031;-75
2022/05/30 05:34:03;;;;;;;10.70;2.47;;;;;;;44.39;15.03;98044.59;4976510;28;20043;-74
2022/05/30 05:36:31;;;;;;;8.02;2.30;;;;;;;44.55;14.70;98060.22;4975388;28;20042;-74
2022/05/30 05:38:57;;;;;;;11.38;2.42;;;;;;;44.33;15.44;98065.28;4958801;28;20062;-75
2022/05/30 05:41:23;;;;;;;8.30;2.10;;;;;;;44.59;14.48;98070.19;4975093;28;20043;-75
2022/05/30 05:43:49;;;;;;;7.22;2.30;;;;;;;44.91;14.02;98072.81;4975078;28;20097;-75
2022/05/30 05:46:15;;;;;;;9.18;2.50;;;;;;;45.19;14.24;98076.56;4975405;28;20101;-75
2022/05/30 05:48:41;;;;;;;6.65;2.30;;;;;;;45.36;13.66;98075.28;4974882;28;20035;-75
2022/05/30 05:51:06;;;;;;;5.77;2.00;;;;;;;45.53;13.92;98079.56;4959131;28;20074;-74
2022/05/30 05:53:32;;;;;;;8.50;2.43;;;;;;;45.71;13.23;98080.69;4958828;28;20031;-75
2022/05/30 05:55:57;;;;;;;7.47;2.33;;;;;;;45.83;13.76;98080.53;4974855;28;20034;-75
2022/05/30 05:58:23;;;;;;;7.43;2.30;;;;;;;45.98;13.43;98092.56;4976058;28;20027;-74
2022/05/30 06:00:48;;;;;;;7.63;2.37;;;;;;;45.95;13.31;98089.75;4975775;28;20402;-74
2022/05/30 06:03:14;;;;;;;6.70;2.17;;;;;;;45.86;13.37;98088.06;4975523;28;20030;-74
2022/05/30 06:05:40;;;;;;;7.03;2.07;;;;;;;45.86;13.50;98081.72;4975757;28;20104;-75
2022/05/30 06:08:06;;;;;;;8.93;2.20;;;;;;;45.99;13.01;98093.34;4958541;28;20117;-74
2022/05/30 06:10:33;;;;;;;7.88;2.00;;;;;;;46.03;13.41;98088.72;4975768;28;20266;-74
2022/05/30 06:12:58;;;;;;;7.68;1.92;;;;;;;46.02;12.96;98092.63;4975620;28;20038;-75
2022/05/30 06:15:24;;;;;;;5.10;1.60;;;;;;;46.01;13.61;98097.34;4958412;28;20468;-75
2022/05/30 06:17:49;;;;;;;5.10;1.70;;;;;;;46.07;12.77;98100.59;4974289;28;20126;-74
2022/05/30 06:20:16;;;;;;;7.73;1.67;;;;;;;46.10;13.23;98099.06;4975939;28;20118;-73
2022/05/30 06:22:41;;;;;;;5.57;1.73;;;;;;;46.01;13.25;98094.59;4958349;28;20062;-74
2022/05/30 06:25:07;;;;;;;8.73;1.80;;;;;;;46.04;13.03;98098.59;4974371;28;20070;-75
2022/05/30 06:27:34;;;;;;;6.15;1.70;;;;;;;45.93;12.99;98100.34;4974347;28;20027;-75
2022/05/30 06:30:00;;;;;;;7.05;1.80;;;;;;;45.86;13.31;98101.84;4975539;28;20038;-75
2022/05/30 06:32:26;;;;;;;5.95;1.50;;;;;;;45.77;12.98;98101.28;4974157;28;20027;-75
2022/05/30 06:34:51;;;;;;;4.83;1.57;;;;;;;45.71;12.99;98105.47;4974327;28;20058;-75
2022/05/30 06:37:17;;;;;;;6.53;1.53;;;;;;;45.63;13.34;98112.81;4974292;28;20035;-74
2022/05/30 06:39:43;;;;;;;11.10;1.53;;;;;;;45.57;14.12;98113.50;4975258;28;20133;-74
2022/05/30 06:42:10;;;;;;;5.63;1.77;;;;;;;45.57;14.04;98110.75;4975336;28;20286;-76
2022/05/30 06:44:36;;;;;;;;;;;;;;;45.49;13.94;98118.88;4958182;28;20614;-75
2022/05/30 06:47:02;;;;;;;4.72;1.52;;;;;;;45.55;14.17;98130.41;4975228;28;19921;-75
2022/05/30 06:49:28;;;;;;;4.82;1.60;;;;;;;45.47;13.77;98129.47;4973952;28;20102;-75
2022/05/30 06:51:53;;;;;;;6.33;1.63;;;;;;;45.47;13.49;98129.47;4974002;28;20038;-75
2022/05/30 06:54:20;;;;;;;9.07;1.70;;;;;;;45.37;13.34;98134.72;4973837;28;20070;-75
2022/05/30 06:59:29;;;;;;;8.02;1.67;;;;;;;45.13;14.26;98134.66;4974861;28;20045;-76
2022/05/30 07:01:55;;;;;;;10.10;2.20;;;;;;;45.05;13.82;98126.63;4974042;28;20031;-76
2022/05/30 07:04:20;;;;;;;7.70;2.60;;;;;;;44.91;14.06;98127.88;4973803;28;20031;-76
2022/05/30 07:06:46;;;;;;;6.90;2.37;;;;;;;44.84;14.53;98125.00;4974873;28;20035;-76
2022/05/30 07:09:11;;;;;;;9.43;3.90;;;;;;;44.86;14.59;98122.66;4973628;28;20023;-76
2022/05/30 07:11:39;;;;;;;9.80;2.87;;;;;;;44.84;14.87;98121.44;4957667;28;20537;-76
2022/05/30 07:14:06;;;;;;;9.02;4.10;;;;;;;44.80;14.82;98118.59;4972297;28;20490;-76
2022/05/30 07:16:31;;;;;;;10.95;4.10;;;;;;;44.86;14.32;98125.41;4957605;28;20126;-76
2022/05/30 07:18:57;;;;;;;6.50;3.33;;;;;;;44.78;14.80;98116.19;4974665;28;20033;-76
2022/05/30 07:21:22;;;;;;;6.70;2.73;;;;;;;44.70;14.57;98119.16;4974660;28;20031;-76
2022/05/30 07:23:49;;;;;;;11.93;4.40;;;;;;;44.65;14.68;98128.50;4973399;28;20031;-75
2022/05/30 07:26:19;;;;;;;11.55;6.05;;;;;;;44.55;15.14;98126.25;4957201;28;20515;-75
2022/05/30 07:28:45;;;;;;;10.00;3.53;;;;;;;44.52;14.83;98126.97;4957537;28;20038;-75
2022/05/30 07:31:13;;;;;;;10.63;5.07;;;;;;;44.47;15.19;98130.00;4973468;28;20043;-76
2022/05/30 07:33:39;;;;;;;10.25;4.25;;;;;;;44.35;15.39;98137.22;4957119;28;20074;-76
2022/05/30 07:36:09;;;;;;;10.35;3.38;;;;;;;44.29;14.95;98141.41;4973281;28;20027;-76
2022/05/30 07:38:35;;;;;;;11.68;5.07;;;;;;;44.06;15.13;98144.75;4972899;28;20065;-76
2022/05/30 07:41:03;;;;;;;6.07;3.60;;;;;;;43.84;15.17;98145.34;4974281;28;20031;-76
2022/05/30 07:43:29;;;;;;;9.20;2.67;;;;;;;43.45;15.70;98140.38;4974189;28;20031;-76
2022/05/30 07:45:54;;;;;;;7.27;3.47;;;;;;;42.92;16.07;98145.88;4972863;28;20496;-76
2022/05/30 07:48:19;;;;;;;12.17;2.80;;;;;;;42.76;16.19;98143.00;4972820;28;20414;-77
2022/05/30 07:50:45;;;;;;;11.27;4.60;;;;;;;42.75;16.30;98140.66;4973006;28;20034;-76
2022/05/30 07:53:10;;;;;;;8.77;2.92;;;;;;;42.67;16.48;98139.63;4972985;28;20030;-74
2022/05/30 07:55:38;;;;;;;4.90;2.20;;;;;;;42.61;16.43;98152.75;4972806;28;20097;-77
2022/05/30 07:58:06;;;;;;;5.97;2.30;;;;;;;42.59;16.25;98155.06;4972574;28;20019;-76
2022/05/30 08:00:35;;;;;;;5.68;2.38;;;;;;;42.54;16.30;98158.00;4973934;28;20034;-76
2022/05/30 08:03:01;;;;;;;4.97;2.20;;;;;;;42.55;16.77;98158.81;4972844;28;20053;-78
2022/05/30 08:05:27;;;;;;;4.65;2.10;;;;;;;42.56;16.41;98160.41;4972582;28;20081;-75
2022/05/30 08:07:52;;;;;;;4.50;1.67;;;;;;;42.19;16.78;98166.66;4972445;28;20371;-76
2022/05/30 08:10:18;;;;;;;5.18;1.90;;;;;;;41.51;17.49;98162.31;4974035;28;20049;-76
2022/05/30 08:12:43;;;;;;;3.50;1.67;;;;;;;41.82;17.43;98172.03;4956215;28;20058;-76
2022/05/30 08:15:09;;;;;;;4.53;1.50;;;;;;;41.73;17.38;98174.06;4973922;28;20038;-76
2022/05/30 08:17:35;;;;;;;5.78;1.48;;;;;;;41.25;17.61;98169.94;4972501;28;20045;-75
2022/05/30 08:20:01;;;;;;;4.53;1.00;;;;;;;41.11;17.71;98165.50;4956688;28;20045;-75
2022/05/30 08:22:27;;;;;;;6.32;1.55;;;;;;;40.55;18.51;98181.28;4972522;28;20027;-75
2022/05/30 08:24:53;;;;;;;5.50;1.20;;;;;;;40.36;18.71;98165.25;4972129;28;20080;-77
2022/05/30 08:27:19;;;;;;;4.13;1.10;;;;;;;40.51;18.65;98178.41;4972471;28;20546;-75
2022/05/30 08:29:45;;;;;;;6.57;1.42;;;;;;;40.41;18.74;98176.84;4972185;28;20041;-75
2022/05/30 08:32:11;;;;;;;3.95;1.10;;;;;;;40.32;18.70;98192.44;4972425;28;20038;-75
2022/05/30 08:34:36;;;;;;;4.53;1.08;;;;;;;40.18;18.78;98183.66;4972312;28;20046;-75
2022/05/30 08:37:03;;;;;;;4.10;1.02;;;;;;;40.05;18.86;98189.00;4972400;28;20030;-75
2022/05/30 08:42:12;;;;;;;4.07;1.20;;;;;;;39.72;18.98;98196.91;4972540;28;20042;-75
2022/05/30 08:44:38;;;;;;;3.50;0.93;;;;;;;39.58;19.41;98192.44;4972217;28;20043;-75
2022/05/30 08:47:13;;;;;;;2.75;1.10;;;;;;;39.44;19.39;98198.00;4972406;28;20485;-76
2022/05/30 08:49:42;;;;;;;3.20;1.10;;;;;;;39.35;19.44;98199.94;4940345;28;20031;-77
2022/05/30 08:52:26;;;;;;;4.63;1.15;;;;;;;39.17;20.13;98195.56;4957025;28;20031;-75
2022/05/30 08:55:21;;;;;;;4.35;1.20;;;;;;;39.12;19.70;98214.84;4972067;28;20524;-75
2022/05/30 08:58:01;;;;;;;5.22;1.30;;;;;;;38.97;20.06;98208.69;4974922;28;20061;-75
2022/05/30 09:00:41;;;;;;;7.07;1.35;;;;;;;38.95;20.19;98200.03;4972646;28;20117;-75
2022/05/30 09:03:17;;;;;;;3.90;1.05;;;;;;;38.93;20.47;98218.63;4972266;28;20027;-76
2022/05/30 09:05:53;;;;;;;6.25;1.20;;;;;;;38.81;20.61;98213.78;4955803;28;20058;-75
2022/05/30 09:08:32;;;;;;;3.00;0.98;;;;;;;38.84;20.27;98215.06;4955748;28;20219;-75
2022/05/30 09:11:03;;;;;;;4.30;1.00;;;;;;;38.71;20.48;98217.59;4972282;28;20118;-75
2022/05/30 09:13:29;;;;;;;4.53;1.27;;;;;;;38.57;20.49;98221.50;4972091;28;20034;-76
2022/05/30 09:16:21;;;;;;;3.42;1.10;;;;;;;38.36;20.54;98214.69;4973088;28;20042;-75
2022/05/30 09:18:52;;;;;;;5.53;1.30;;;;;;;38.29;20.53;98219.00;4973099;28;20058;-76
2022/05/30 09:21:18;;;;;;;6.50;1.10;;;;;;;38.28;20.76;98220.09;4971992;28;20090;-75
2022/05/30 09:23:44;;;;;;;3.17;1.17;;;;;;;38.24;20.91;98216.38;4973400;28;20033;-74
2022/05/30 09:26:11;;;;;;;6.32;1.42;;;;;;;38.25;21.23;98223.44;4971788;28;20039;-75
2022/05/30 09:28:40;;;;;;;3.30;1.27;;;;;;;38.22;21.45;98233.03;4955883;28;20461;-75
2022/05/30 09:31:17;;;;;;;4.55;1.23;;;;;;;38.23;21.64;98226.50;4973056;28;20137;-76
2022/05/30 09:33:56;;;;;;;6.72;1.55;;;;;;;38.23;21.23;98228.41;4973450;28;20062;-75
2022/05/30 09:36:30;;;;;;;3.13;1.27;;;;;;;38.25;21.44;98239.81;4972737;28;20062;-75
2022/05/30 09:39:05;;;;;;;5.30;1.30;;;;;;;37.92;21.76;98237.31;4975449;28;20170;-76
2022/05/30 09:41:56;;;;;;;6.22;1.30;;;;;;;37.57;22.03;98243.25;4975359;28;20100;-77
2022/05/30 09:44:39;;;;;;;5.13;1.40;;;;;;;37.28;21.99;98239.00;4975345;28;20046;-76
2022/05/30 09:47:07;;;;;;;6.65;1.50;;;;;;;37.04;22.49;98243.84;4959079;28;20034;-75
2022/05/30 09:49:35;;;;;;;6.50;1.65;;;;;;;36.82;23.00;98244.56;4959091;28;20121;-77
2022/05/30 09:52:04;;;;;;;4.18;1.35;;;;;;;36.64;23.18;98238.88;4974974;28;20066;-76
2022/05/30 09:54:38;;;;;;;3.20;1.10;;;;;;;36.68;23.04;98241.81;4975002;28;20130;-76
2022/05/30 09:57:17;;;;;;;5.75;1.40;;;;;;;36.59;23.40;98241.69;4975045;28;20026;-75
2022/05/30 09:59:44;;;;;;;5.80;1.50;;;;;;;36.60;23.12;98240.59;4959065;28;20057;-75
2022/05/30 10:02:22;;;;;;;4.37;1.40;;;;;;;36.44;23.59;98247.41;4958889;28;20034;-75
2022/05/30 10:05:13;;;;;;;3.70;1.40;;;;;;;36.31;23.32;98238.94;4976007;28;20026;-75
2022/05/30 10:07:50;;;;;;;5.53;1.45;;;;;;;36.18;23.54;98245.09;4993155;28;20038;-75
2022/05/30 10:10:27;;;;;;;6.00;1.33;;;;;;;36.05;23.56;98233.09;4977022;28;20118;-77
2022/05/30 10:13:02;;;;;;;2.58;1.15;;;;;;;35.89;24.08;98245.31;4978175;28;20061;-75
2022/05/30 10:15:33;;;;;;;5.68;1.52;;;;;;;35.86;24.12;98246.69;4976927;28;20069;-75
2022/05/30 10:18:24;;;;;;;4.32;1.40;;;;;;;35.76;24.31;98252.31;4960813;28;20034;-75
2022/05/30 10:21:08;;;;;;;5.80;1.70;;;;;;;35.65;24.40;98259.75;4976775;28;20033;-76
2022/05/30 10:30:05;;;;;;;7.38;1.80;;;;;;;35.23;25.07;98253.22;4979270;28;20033;-75
2022/05/30 10:32:53;;;;;;;4.10;1.40;;;;;;;35.07;25.05;98263.47;4992760;28;20485;-75
2022/05/30 10:35:31;;;;;;;5.47;1.80;;;;;;;34.86;25.17;98258.28;4976610;28;20045;-76
2022/05/30 10:38:12;;;;;;;4.75;1.58;;;;;;;34.72;25.10;98260.03;4976438;28;20046;-76
2022/05/30 10:41:00;;;;;;;4.63;1.40;;;;;;;34.46;25.19;98254.06;4976350;28;20485;-75
2022/05/30 10:43:48;;;;;;;4.72;1.50;;;;;;;34.23;25.50;98249.09;4976696;28;20031;-76
2022/05/30 10:46:35;;;;;;;6.63;1.60;;;;;;;34.13;25.43;98260.00;4943060;28;20374;-76
2022/05/30 10:49:05;;;;;;;5.60;1.77;;;;;;;34.03;25.76;98260.91;4974843;28;20030;-76
2022/05/30 10:51:35;;;;;;;3.80;1.38;;;;;;;33.92;25.83;98264.75;4957901;28;20102;-76
2022/05/30 10:54:03;;;;;;;4.80;1.50;;;;;;;33.95;25.41;98258.78;4974411;28;20019;-76
2022/05/30 10:56:34;;;;;;;3.63;1.48;;;;;;;34.04;25.91;98250.88;4975072;28;20027;-77
2022/05/30 10:59:03;;;;;;;6.50;1.73;;;;;;;34.02;25.36;98259.28;4958000;28;20035;-75
2022/05/30 11:01:48;;;;;;;4.80;1.42;;;;;;;34.06;25.41;98256.81;4973770;28;20019;-75
2022/05/30 11:04:36;;;;;;;6.47;1.30;;;;;;;33.96;25.80;98251.47;4973797;28;20018;-76
2022/05/30 11:07:22;;;;;;;4.78;1.77;;;;;;;33.85;26.27;98251.53;4973718;28;20022;-75
2022/05/30 11:09:54;;;;;;;6.82;1.63;;;;;;;33.70;26.30;98255.16;4992078;28;20069;-75
2022/05/30 11:12:23;;;;;;;3.63;1.23;;;;;;;33.62;26.41;98246.78;4976138;28;20038;-75
2022/05/30 11:15:03;;;;;;;4.93;1.40;;;;;;;33.51;26.73;98260.41;4960117;28;20052;-75
2022/05/30 11:18:03;;;;;;;5.53;1.75;;;;;;;33.43;26.91;98258.28;4976281;28;20035;-75
2022/05/30 11:20:41;;;;;;;4.43;1.60;;;;;;;33.32;27.00;98253.97;4896022;29;20103;-75
2022/05/30 11:23:07;;;;;;;3.10;1.42;;;;;;;33.26;27.34;98247.00;4881080;29;20116;-75
2022/05/30 11:25:55;;;;;;;3.78;1.40;;;;;;;33.30;27.42;98256.97;4880628;29;20160;-75
2022/05/30 11:28:59;;;;;;;3.92;1.30;;;;;;;33.39;27.61;98259.91;4880678;29;20041;-75
2022/05/30 11:31:28;;;;;;;3.92;1.30;;;;;;;33.45;27.34;98253.41;4840148;29;20054;-75
2022/05/30 11:34:23;;;;;;;3.42;1.40;;;;;;;33.47;27.53;98261.22;4840108;29;20125;-74
2022/05/30 11:37:30;;;;;;;6.10;1.77;;;;;;;33.46;27.38;98256.91;4744778;30;20144;-74
2022/05/30 11:40:18;;;;;;;3.03;1.38;;;;;;;33.53;27.39;98257.41;4735209;30;20147;-74
2022/05/30 11:43:03;;;;;;;5.60;1.98;;;;;;;33.63;26.95;98254.63;4737624;30;20044;-74
2022/05/30 11:45:41;;;;;;;5.72;1.70;;;;;;;33.63;27.22;98265.47;4737081;30;20043;-75
2022/05/30 11:48:44;;;;;;;6.35;1.85;;;;;;;33.62;27.00;98263.84;4736565;30;20036;-75
2022/05/30 11:51:25;;;;;;;3.75;1.77;;;;;;;33.75;26.95;98254.34;4767865;30;20098;-74
2022/05/30 11:54:27;;;;;;;5.03;1.73;;;;;;;33.88;26.83;98258.31;4767647;30;20514;-75
2022/05/30 11:57:01;;;;;;;7.97;1.63;;;;;;;34.04;26.32;98253.56;4796357;29;20042;-75
2022/05/30 11:59:40;;;;;;;3.67;1.45;;;;;;;34.07;26.80;98253.81;4821268;29;20062;-74
2022/05/30 12:02:10;;;;;;;5.40;1.75;;;;;;;34.15;26.65;98257.00;4821921;29;20521;-76
2022/05/30 12:05:06;;;;;;;6.45;2.15;;;;;;;34.03;26.54;98254.66;4806679;29;20034;-75
2022/05/30 12:07:47;;;;;;;7.82;1.92;;;;;;;34.04;26.32;98256.28;4829961;29;20038;-75
2022/05/30 12:10:30;;;;;;;3.97;1.92;;;;;;;33.89;26.61;98252.59;4827750;29;20489;-76